Time;durP1;ratioP1;P1;durP2;ratioP2;P2;SDS_P1;SDS_P2;PMS_P1;PMS_P2;Temp;Humidity;BMP_temperature;BMP_pressure;BME280_temperature;BME280_humidity;BME280_pressure;Samples;Min_cycle;Max_cycle;Signal;HPM_P1;HPM_P2
2020/12/11 00:00:15;;;;;;;4.63;3.15;;;;;;;16.88;50.40;100142.25;4838022;29;20070;-78
2020/12/11 00:02:41;;;;;;;4.20;3.10;;;;;;;16.88;50.45;100138.81;4812082;29;20042;-78
2020/12/11 00:05:06;;;;;;;4.95;3.17;;;;;;;16.86;50.29;100136.22;4844171;29;20385;-78
2020/12/11 00:07:36;;;;;;;3.97;3.00;;;;;;;16.86;50.29;100136.22;4842829;29;20038;-78
2020/12/11 00:10:06;;;;;;;4.55;3.15;;;;;;;16.86;50.28;100128.44;4856842;29;20049;-78
2020/12/11 00:12:32;;;;;;;3.63;3.08;;;;;;;16.86;50.31;100120.63;4848804;29;20036;-79
2020/12/11 00:14:58;;;;;;;4.03;3.15;;;;;;;16.85;50.42;100122.38;4830627;29;20035;-78
2020/12/11 00:17:26;;;;;;;4.78;2.97;;;;;;;16.87;50.34;100124.94;4865017;29;20029;-78
2020/12/11 00:19:54;;;;;;;3.72;2.97;;;;;;;16.85;50.13;100121.50;4828470;29;20037;-78
2020/12/11 00:22:20;;;;;;;4.30;3.20;;;;;;;16.83;50.27;100115.47;4830643;29;20034;-78
2020/12/11 00:24:46;;;;;;;3.70;2.92;;;;;;;16.83;50.01;100116.34;4825940;29;20034;-78
2020/12/11 00:27:11;;;;;;;3.92;3.10;;;;;;;16.83;50.15;100112.88;4828374;29;20473;-78
2020/12/11 00:29:37;;;;;;;4.43;3.15;;;;;;;16.83;49.82;100108.56;4818287;29;20069;-79
2020/12/11 00:32:05;;;;;;;4.93;2.92;;;;;;;16.83;50.07;100107.69;4838396;29;20120;-78
2020/12/11 00:34:31;;;;;;;4.60;3.22;;;;;;;16.83;49.96;100105.97;4863378;29;20374;-78
2020/12/11 00:36:57;;;;;;;3.40;2.80;;;;;;;16.81;49.86;100102.53;4847165;29;20030;-78
2020/12/11 00:39:23;;;;;;;3.53;2.85;;;;;;;16.82;50.06;100098.19;4846622;29;20543;-78
2020/12/11 00:41:48;;;;;;;4.63;3.28;;;;;;;16.82;49.82;100103.38;4828451;29;20042;-78
2020/12/11 00:44:14;;;;;;;4.22;2.90;;;;;;;16.81;50.01;100091.25;4854366;29;20446;-79
2020/12/11 00:46:39;;;;;;;3.85;2.75;;;;;;;16.81;49.94;100088.66;4813419;29;20038;-78
2020/12/11 00:49:05;;;;;;;3.50;2.95;;;;;;;16.80;49.94;100089.56;4839737;29;20422;-79
2020/12/11 00:51:30;;;;;;;4.38;3.15;;;;;;;16.80;49.93;100082.59;4823681;29;20038;-78
2020/12/11 00:53:55;;;;;;;3.97;2.97;;;;;;;16.79;50.00;100080.88;4821385;29;20045;-78
2020/12/11 00:56:23;;;;;;;5.93;3.03;;;;;;;16.79;49.81;100073.09;4848197;29;20045;-78
2020/12/11 00:58:49;;;;;;;4.28;2.75;;;;;;;16.80;49.89;100068.78;4853899;29;20026;-78
2020/12/11 01:01:14;;;;;;;3.55;3.00;;;;;;;16.79;49.72;100059.25;4830801;29;21352;-78
2020/12/11 01:03:39;;;;;;;3.50;2.60;;;;;;;16.80;49.72;100053.19;4831941;29;20057;-78
2020/12/11 01:06:05;;;;;;;4.10;2.92;;;;;;;16.79;49.71;100041.06;4827960;29;20375;-78
2020/12/11 01:08:31;;;;;;;3.95;3.00;;;;;;;16.79;49.92;100046.25;4845987;29;20053;-78
2020/12/11 01:10:56;;;;;;;4.00;3.10;;;;;;;16.78;49.70;100032.38;4827923;29;20374;-78
2020/12/11 01:13:21;;;;;;;3.80;2.90;;;;;;;16.79;49.65;100022.88;4827501;29;20037;-78
2020/12/11 01:15:47;;;;;;;3.35;3.00;;;;;;;16.77;49.92;100020.28;4827869;29;20115;-78
2020/12/11 01:18:12;;;;;;;3.50;2.63;;;;;;;16.76;49.77;100009.91;4828754;29;20046;-78
2020/12/11 01:20:38;;;;;;;3.63;2.55;;;;;;;16.75;49.62;100000.41;4843110;29;20035;-78
2020/12/11 01:23:03;;;;;;;3.63;2.67;;;;;;;16.75;49.60;100000.41;4816702;29;20026;-78
2020/12/11 01:25:29;;;;;;;3.42;2.60;;;;;;;16.75;49.79;99995.22;4830789;29;20029;-78
2020/12/11 01:27:54;;;;;;;3.33;2.80;;;;;;;16.74;49.77;99983.09;4844792;29;20034;-78
2020/12/11 01:30:19;;;;;;;3.65;2.60;;;;;;;16.74;49.59;99983.09;4830937;29;20036;-78
2020/12/11 01:32:45;;;;;;;2.88;2.50;;;;;;;16.75;49.73;99969.25;4813331;29;20433;-79
2020/12/11 01:35:10;;;;;;;3.53;2.80;;;;;;;16.74;49.65;99970.13;4824323;29;20030;-79
2020/12/11 01:37:35;;;;;;;3.72;2.47;;;;;;;16.74;49.43;99957.13;4812231;29;20034;-79
2020/12/11 01:40:01;;;;;;;5.40;2.80;;;;;;;16.71;49.53;99947.66;4842697;29;20061;-79
2020/12/11 01:42:26;;;;;;;2.95;2.55;;;;;;;16.70;49.64;99943.34;4812191;29;20037;-79
2020/12/11 01:44:53;;;;;;;3.50;2.88;;;;;;;16.70;49.48;99939.88;4812523;29;20234;-79
2020/12/11 01:47:22;;;;;;;2.67;2.42;;;;;;;16.72;49.62;99935.50;4846259;29;20078;-79
2020/12/11 01:49:49;;;;;;;2.88;2.55;;;;;;;16.73;49.48;99932.03;4828012;29;20030;-79
2020/12/11 01:52:16;;;;;;;2.97;2.42;;;;;;;16.71;49.23;99928.63;4831389;29;20044;-79
2020/12/11 01:54:42;;;;;;;2.70;2.35;;;;;;;16.71;49.61;99937.25;4812783;29;20034;-79
2020/12/11 01:57:17;;;;;;;3.67;2.45;;;;;;;16.70;49.48;99927.78;4845494;29;20029;-79
2020/12/11 01:59:42;;;;;;;3.30;2.60;;;;;;;16.69;49.38;99918.25;4845113;29;20078;-79
2020/12/11 02:02:09;;;;;;;3.28;2.60;;;;;;;16.68;49.56;99919.16;4829888;29;20033;-79
2020/12/11 02:04:36;;;;;;;3.92;2.50;;;;;;;16.69;49.47;99926.03;4830240;29;20065;-78
2020/12/11 02:07:02;;;;;;;3.42;2.70;;;;;;;16.67;49.54;99923.47;4848204;29;20061;-78
2020/12/11 02:09:34;;;;;;;2.90;2.58;;;;;;;16.67;49.54;99918.28;4830395;29;20466;-79
2020/12/11 02:12:00;;;;;;;3.55;2.53;;;;;;;16.66;49.45;99919.19;4846847;29;20057;-79
2020/12/11 02:14:26;;;;;;;3.65;2.60;;;;;;;16.69;49.56;99922.59;4835527;29;20389;-79
2020/12/11 02:17:17;;;;;;;2.88;2.45;;;;;;;16.66;49.44;99919.19;4827784;29;20117;-79
2020/12/11 02:19:43;;;;;;;2.65;2.28;;;;;;;16.65;49.35;99920.03;4824901;29;20110;-79
2020/12/11 02:22:08;;;;;;;2.75;2.30;;;;;;;16.65;49.44;99916.59;4826971;29;20485;-79
2020/12/11 02:24:33;;;;;;;3.60;2.55;;;;;;;16.65;49.47;99911.41;4843401;29;20547;-79
2020/12/11 02:27:00;;;;;;;3.10;2.15;;;;;;;16.64;49.32;99905.38;4808043;29;20120;-79
2020/12/11 02:29:27;;;;;;;3.63;2.63;;;;;;;16.64;49.33;99909.72;4826826;29;20034;-79
2020/12/11 02:31:53;;;;;;;2.83;2.40;;;;;;;16.63;49.36;99916.63;4826914;29;20520;-78
2020/12/11 02:34:19;;;;;;;2.67;2.30;;;;;;;16.63;49.25;99919.22;4828916;29;20026;-78
2020/12/11 02:36:45;;;;;;;2.70;2.40;;;;;;;16.63;49.41;99911.44;4853382;29;20037;-78
2020/12/11 02:39:10;;;;;;;2.97;2.60;;;;;;;16.63;49.48;99914.03;4846757;29;20025;-78
2020/12/11 02:41:36;;;;;;;2.65;2.45;;;;;;;16.63;49.53;99910.56;4845534;29;20029;-78
2020/12/11 02:44:02;;;;;;;3.40;2.58;;;;;;;16.64;49.53;99905.38;4836149;29;20098;-78
2020/12/11 02:46:28;;;;;;;3.53;2.47;;;;;;;16.63;49.43;99895.84;4853192;29;20042;-78
2020/12/11 02:48:54;;;;;;;2.75;2.30;;;;;;;16.65;49.54;99901.00;4847584;29;20072;-78
2020/12/11 02:51:19;;;;;;;2.92;2.50;;;;;;;16.64;49.40;99896.72;4845235;29;20064;-78
2020/12/11 02:53:49;;;;;;;2.72;2.20;;;;;;;16.64;49.36;99891.53;4861394;29;20045;-78
2020/12/11 02:56:18;;;;;;;3.10;2.47;;;;;;;16.65;49.34;99888.03;4830439;29;20503;-78
2020/12/11 02:58:43;;;;;;;2.42;2.05;;;;;;;16.65;49.49;99882.84;4860058;29;20033;-78
2020/12/11 03:01:08;;;;;;;2.53;2.22;;;;;;;16.66;49.41;99876.75;4821244;29;20113;-78
2020/12/11 03:03:34;;;;;;;3.30;2.28;;;;;;;16.64;49.70;99871.59;4828518;29;20549;-78
2020/12/11 03:05:59;;;;;;;2.70;2.20;;;;;;;16.67;49.42;99865.47;4828646;29;20442;-78
2020/12/11 03:08:24;;;;;;;2.92;2.45;;;;;;;16.68;49.35;99867.19;4844013;29;20082;-78
2020/12/11 03:10:50;;;;;;;3.03;2.15;;;;;;;16.67;49.49;99857.69;4828730;29;20040;-78
2020/12/11 03:13:15;;;;;;;2.90;2.15;;;;;;;16.67;49.30;99852.47;4814569;29;20060;-78
2020/12/11 03:15:40;;;;;;;2.88;2.30;;;;;;;16.66;49.46;99846.44;4841584;29;20041;-78
2020/12/11 03:18:06;;;;;;;2.53;2.10;;;;;;;16.67;49.28;99840.34;4835901;29;20042;-78
2020/12/11 03:20:31;;;;;;;2.90;2.10;;;;;;;16.67;49.50;99831.69;4833037;29;20097;-78
2020/12/11 03:22:56;;;;;;;2.88;2.30;;;;;;;16.67;49.54;99839.50;4828427;29;20040;-78
2020/12/11 03:25:23;;;;;;;2.58;2.15;;;;;;;16.69;49.48;99826.47;4843036;29;20041;-78
2020/12/11 03:27:48;;;;;;;2.55;2.20;;;;;;;16.67;49.53;99821.31;4848998;29;20045;-78
2020/12/11 03:30:14;;;;;;;2.67;2.40;;;;;;;16.66;49.38;99804.88;4859652;29;20045;-78
2020/12/11 03:32:39;;;;;;;2.35;2.03;;;;;;;16.67;49.45;99793.59;4840103;29;20033;-78
2020/12/11 03:35:05;;;;;;;2.92;2.20;;;;;;;16.67;49.42;99788.38;4827973;29;20033;-78
2020/12/11 03:37:31;;;;;;;2.60;2.10;;;;;;;16.67;49.45;99772.81;4843429;29;20477;-78
2020/12/11 03:39:56;;;;;;;2.55;2.10;;;;;;;16.68;49.24;99763.28;4843763;29;20053;-78
2020/12/11 03:42:22;;;;;;;2.75;2.28;;;;;;;16.70;49.38;99763.22;4828793;29;20040;-78
2020/12/11 03:44:47;;;;;;;2.65;2.08;;;;;;;16.67;49.40;99749.41;4847722;29;20126;-78
2020/12/11 03:47:12;;;;;;;2.22;1.70;;;;;;;16.66;49.54;99737.34;4818060;29;20043;-78
2020/12/11 03:49:38;;;;;;;3.15;2.03;;;;;;;16.69;49.59;99730.38;4829205;29;20040;-78
2020/12/11 03:52:03;;;;;;;2.35;1.95;;;;;;;16.68;49.43;99721.72;4842803;29;20084;-78
2020/12/11 03:54:28;;;;;;;2.67;2.00;;;;;;;16.69;49.40;99738.16;4863216;29;20039;-78
2020/12/11 03:56:54;;;;;;;2.63;2.03;;;;;;;16.70;49.46;99738.13;4846734;29;20043;-77
2020/12/11 03:59:19;;;;;;;2.40;2.03;;;;;;;16.68;49.58;99732.13;4846734;29;20112;-78
2020/12/11 04:01:45;;;;;;;2.92;1.98;;;;;;;16.69;49.36;99732.97;4831896;29;20124;-79
2020/12/11 04:04:10;;;;;;;2.28;2.08;;;;;;;16.69;49.48;99722.56;4831976;29;20041;-79
2020/12/11 04:06:36;;;;;;;2.38;2.00;;;;;;;16.69;49.58;99713.03;4828282;29;20030;-79
2020/12/11 04:09:03;;;;;;;3.92;1.88;;;;;;;16.70;49.25;99698.28;4831830;29;20114;-79
2020/12/11 04:11:29;;;;;;;2.60;1.98;;;;;;;16.69;49.49;99696.59;4829021;29;20038;-79
2020/12/11 04:13:54;;;;;;;2.00;1.67;;;;;;;16.69;49.60;99691.41;4833705;29;20137;-79
2020/12/11 04:16:19;;;;;;;2.30;1.70;;;;;;;16.68;49.52;99682.75;4847517;29;20025;-79
2020/12/11 04:18:45;;;;;;;3.03;2.00;;;;;;;16.69;49.38;99681.84;4827003;29;20057;-79
2020/12/11 04:21:13;;;;;;;1.90;1.70;;;;;;;16.69;49.42;99673.22;4820029;29;20500;-80
2020/12/11 04:23:38;;;;;;;2.50;1.80;;;;;;;16.69;49.72;99662.81;4842275;29;20033;-79
2020/12/11 04:26:04;;;;;;;2.25;1.73;;;;;;;16.69;49.49;99655.88;4832062;29;20034;-79
2020/12/11 04:28:29;;;;;;;2.30;1.70;;;;;;;16.69;49.44;99649.84;4830003;29;20474;-79
2020/12/11 04:30:54;;;;;;;2.35;1.70;;;;;;;16.69;49.36;99649.84;4844222;29;20401;-80
2020/12/11 04:33:20;;;;;;;2.05;1.70;;;;;;;16.70;49.17;99646.34;4813787;29;20036;-80
2020/12/11 04:35:45;;;;;;;2.05;1.80;;;;;;;16.70;49.63;99641.13;4818117;29;20078;-80
2020/12/11 04:38:10;;;;;;;1.77;1.63;;;;;;;16.70;49.48;99638.53;4828706;29;20045;-80
2020/12/11 04:40:36;;;;;;;2.20;1.63;;;;;;;16.68;49.47;99633.41;4839148;29;20029;-80
2020/12/11 04:43:03;;;;;;;2.03;1.50;;;;;;;16.68;49.50;99623.03;4846882;29;20033;-79
2020/12/11 04:45:30;;;;;;;3.08;1.60;;;;;;;16.70;49.24;99629.03;4831184;29;20041;-79
2020/12/11 04:47:56;;;;;;;2.17;1.45;;;;;;;16.69;49.50;99626.47;4814074;29;20037;-79
2020/12/11 04:50:22;;;;;;;2.35;1.75;;;;;;;16.68;49.48;99623.03;4828639;29;20037;-80
2020/12/11 04:52:48;;;;;;;3.35;1.70;;;;;;;16.68;49.81;99630.81;4843787;29;20034;-80
2020/12/11 04:55:18;;;;;;;2.05;1.60;;;;;;;16.69;49.62;99619.50;4828264;29;20037;-79
2020/12/11 04:57:46;;;;;;;2.42;1.70;;;;;;;16.69;49.56;99613.47;4855357;29;20048;-79
2020/12/11 05:00:12;;;;;;;1.73;1.58;;;;;;;16.68;49.64;99610.03;4863202;29;20551;-79
2020/12/11 05:02:42;;;;;;;1.65;1.40;;;;;;;16.67;49.60;99606.56;4829587;29;20041;-78
2020/12/11 05:05:09;;;;;;;1.42;1.30;;;;;;;16.68;49.48;99607.44;4844546;29;20513;-78
2020/12/11 05:07:35;;;;;;;1.90;1.60;;;;;;;16.66;49.50;99602.25;4817995;29;20124;-78
2020/12/11 05:10:01;;;;;;;2.10;1.70;;;;;;;16.68;49.72;99604.84;4831026;29;20205;-79
2020/12/11 05:12:26;;;;;;;1.98;1.70;;;;;;;16.69;49.40;99595.28;4846447;29;20128;-80
2020/12/11 05:15:05;;;;;;;1.55;1.40;;;;;;;16.69;49.58;99596.13;4831339;29;20040;-80
2020/12/11 05:17:33;;;;;;;1.70;1.40;;;;;;;16.69;49.43;99590.94;4838759;29;20179;-80
2020/12/11 05:19:59;;;;;;;1.70;1.40;;;;;;;16.69;49.56;99585.75;4829063;29;20116;-79
2020/12/11 05:22:29;;;;;;;1.73;1.30;;;;;;;16.68;49.38;99573.66;4830772;29;20029;-79
2020/12/11 05:24:58;;;;;;;1.70;1.40;;;;;;;16.69;49.59;99572.75;4849624;29;20040;-79
2020/12/11 05:27:27;;;;;;;1.70;1.42;;;;;;;16.69;49.71;99571.91;4833905;29;20034;-79
2020/12/11 05:29:53;;;;;;;1.67;1.45;;;;;;;16.69;49.67;99562.38;4827900;29;20464;-79
2020/12/11 05:32:40;;;;;;;1.40;1.20;;;;;;;16.70;49.66;99553.69;4821216;29;20037;-80
2020/12/11 05:35:19;;;;;;;2.08;1.63;;;;;;;16.68;49.52;99550.28;4827710;29;20546;-80
2020/12/11 05:37:49;;;;;;;1.90;1.50;;;;;;;16.70;49.40;99548.50;4832821;29;20053;-80
2020/12/11 05:40:32;;;;;;;1.80;1.35;;;;;;;16.69;49.48;99538.16;4858839;29;20041;-80
2020/12/11 05:43:22;;;;;;;2.05;1.50;;;;;;;16.69;49.42;99530.34;4864917;29;20034;-79
2020/12/11 05:45:51;;;;;;;1.73;1.25;;;;;;;16.71;49.62;99529.41;4859448;29;20186;-79
2020/12/11 05:48:17;;;;;;;1.42;1.20;;;;;;;16.73;49.65;99526.78;4856899;29;20121;-78
2020/12/11 05:50:42;;;;;;;2.28;1.30;;;;;;;16.73;49.41;99525.03;4861963;29;20477;-79
2020/12/11 05:53:08;;;;;;;2.13;1.40;;;;;;;16.74;49.72;99520.69;4846337;29;20036;-79
2020/12/11 05:55:33;;;;;;;1.77;1.45;;;;;;;16.74;49.52;99526.72;4832401;29;20049;-79
2020/12/11 05:57:59;;;;;;;3.70;1.60;;;;;;;16.75;49.48;99525.00;4844762;29;20039;-78
2020/12/11 06:01:12;;;;;;;2.80;1.50;;;;;;;16.75;49.69;99533.63;4862591;29;20056;-81
2020/12/11 06:03:40;;;;;;;1.70;1.30;;;;;;;16.74;49.61;99518.94;4859178;29;20052;-79
2020/12/11 06:06:09;;;;;;;1.70;1.40;;;;;;;16.76;49.66;99518.91;4874239;29;20013;-81
2020/12/11 06:08:44;;;;;;;1.70;1.30;;;;;;;16.75;49.55;99514.59;4868133;29;20132;-80
2020/12/11 06:11:35;;;;;;;2.25;1.60;;;;;;;16.74;49.71;99510.28;4874024;29;20047;-81
2020/12/11 06:14:30;;;;;;;5.10;2.08;;;;;;;16.74;49.67;99512.88;4851502;29;20034;-81
2020/12/11 06:17:34;;;;;;;10.38;3.28;;;;;;;16.93;49.96;99510.69;5517338;24;20013;-80
2020/12/11 06:20:03;;;;;;;13.55;3.97;;;;;;;17.11;50.10;99506.69;4843829;29;20042;-80
2020/12/11 06:22:44;;;;;;;12.52;3.60;;;;;;;17.22;49.89;99504.63;4824767;29;20098;-82
2020/12/11 06:31:53;;;;;;;8.43;3.28;;;;;;;17.29;49.58;99490.59;4779348;30;20104;-81
2020/12/11 06:34:21;;;;;;;7.20;2.90;;;;;;;17.29;49.73;99487.97;4775868;30;20164;-80
2020/12/11 06:36:50;;;;;;;7.45;2.90;;;;;;;17.30;49.83;99487.06;4767350;30;20042;-81
2020/12/11 06:39:38;;;;;;;8.05;3.25;;;;;;;17.32;49.78;99480.06;4754957;30;20108;-80
2020/12/11 06:42:03;;;;;;;6.55;3.15;;;;;;;17.32;49.73;99474.03;4754070;30;20466;-79
2020/12/11 06:44:31;;;;;;;7.53;2.85;;;;;;;17.32;49.51;99468.84;4754310;30;20051;-79
2020/12/11 06:47:07;;;;;;;6.95;3.10;;;;;;;17.33;49.61;99468.75;4768833;30;20088;-79
2020/12/11 06:49:32;;;;;;;7.70;3.10;;;;;;;17.32;49.33;99461.03;4769141;30;20455;-79
2020/12/11 06:51:58;;;;;;;6.03;2.80;;;;;;;17.33;49.72;99460.97;4768798;30;20122;-79
2020/12/11 06:54:23;;;;;;;7.53;2.75;;;;;;;17.33;49.45;99450.56;4753176;30;20388;-80
2020/12/11 06:57:00;;;;;;;10.18;2.72;;;;;;;17.34;49.70;99443.63;4801647;29;20108;-80
2020/12/11 06:59:32;;;;;;;5.88;2.60;;;;;;;17.35;49.21;99442.72;4814739;29;20038;-80
2020/12/11 07:02:14;;;;;;;5.53;2.25;;;;;;;17.35;49.46;99442.72;4789879;29;20026;-80
2020/12/11 07:04:50;;;;;;;3.85;2.28;;;;;;;17.34;49.30;99434.09;4772783;30;20027;-80
2020/12/11 07:07:18;;;;;;;4.28;2.53;;;;;;;17.34;49.63;99431.47;4802246;29;20091;-80
2020/12/11 07:09:45;;;;;;;5.53;2.63;;;;;;;17.35;49.39;99435.75;4805299;29;20042;-80
2020/12/11 07:12:14;;;;;;;4.85;2.60;;;;;;;17.36;49.51;99439.25;4790513;29;20045;-80
2020/12/11 07:14:39;;;;;;;5.43;2.22;;;;;;;17.36;49.36;99440.09;4806899;29;20117;-80
2020/12/11 07:17:04;;;;;;;4.45;2.40;;;;;;;17.35;48.88;99433.16;4791193;29;20062;-80
2020/12/11 07:19:34;;;;;;;4.65;2.47;;;;;;;17.37;49.20;99426.16;4779540;29;20062;-80
2020/12/11 07:22:00;;;;;;;3.47;2.22;;;;;;;17.35;49.27;99425.38;4792861;29;20065;-81
2020/12/11 07:24:29;;;;;;;5.60;2.75;;;;;;;17.36;49.16;99423.63;4797225;29;20035;-81
2020/12/11 07:27:02;;;;;;;3.45;2.13;;;;;;;17.36;49.32;99426.25;4812622;29;20034;-81
2020/12/11 07:29:28;;;;;;;5.47;2.53;;;;;;;17.38;49.33;99432.25;4784293;29;20103;-81
2020/12/11 07:31:55;;;;;;;3.80;2.15;;;;;;;17.36;49.23;99424.47;4795274;29;20550;-81
2020/12/11 07:34:23;;;;;;;3.08;2.05;;;;;;;17.35;48.99;99422.75;4811555;29;20391;-81
2020/12/11 07:36:56;;;;;;;4.00;1.90;;;;;;;17.38;49.22;99429.66;4796117;29;20027;-81
2020/12/11 07:39:24;;;;;;;4.10;2.33;;;;;;;17.38;49.37;99424.44;4781130;29;20035;-80
2020/12/11 07:41:50;;;;;;;4.88;2.10;;;;;;;17.38;49.35;99414.03;4788088;30;20039;-80
2020/12/11 07:44:26;;;;;;;4.15;2.03;;;;;;;17.36;49.13;99408.88;4802108;29;20047;-80
2020/12/11 07:46:57;;;;;;;4.03;2.10;;;;;;;17.37;49.42;99413.16;4795250;29;20058;-81
2020/12/11 07:49:37;;;;;;;4.00;2.10;;;;;;;17.38;49.13;99417.50;4797436;29;20113;-81
2020/12/11 07:52:03;;;;;;;3.80;2.22;;;;;;;17.38;49.10;99412.28;4810535;29;20066;-80
2020/12/11 07:54:41;;;;;;;3.50;2.20;;;;;;;17.39;49.09;99411.38;4794513;29;20034;-81
2020/12/11 07:57:25;;;;;;;2.92;1.63;;;;;;;17.40;49.10;99407.06;4811025;29;20037;-81
2020/12/11 08:00:09;;;;;;;3.10;1.95;;;;;;;17.41;49.03;99419.97;4795964;29;20026;-81
2020/12/11 08:02:35;;;;;;;3.60;1.85;;;;;;;17.39;49.01;99400.97;4790335;29;20035;-81
2020/12/11 08:05:05;;;;;;;2.83;1.90;;;;;;;17.41;49.07;99406.97;4795726;29;20038;-81
2020/12/11 08:07:31;;;;;;;3.10;1.90;;;;;;;17.41;48.85;99406.13;4795363;29;20087;-81
2020/12/11 08:10:11;;;;;;;3.22;2.20;;;;;;;17.39;48.95;99406.19;4803006;29;20031;-81
2020/12/11 08:12:39;;;;;;;2.65;1.90;;;;;;;17.38;48.80;99404.47;4803429;29;20030;-81
2020/12/11 08:15:06;;;;;;;3.13;1.92;;;;;;;17.37;48.89;99397.56;4802998;29;20035;-81
2020/12/11 08:17:32;;;;;;;2.88;1.90;;;;;;;17.35;48.90;99391.56;4809697;29;20356;-80
2020/12/11 08:19:59;;;;;;;3.42;2.00;;;;;;;17.33;48.86;99393.34;4772523;29;20546;-81
2020/12/11 08:22:51;;;;;;;2.20;1.70;;;;;;;17.32;48.91;99389.06;4798974;29;20041;-81
2020/12/11 08:25:18;;;;;;;2.90;1.90;;;;;;;17.31;49.11;99389.13;4800594;29;20045;-81
2020/12/11 08:27:43;;;;;;;3.15;1.83;;;;;;;17.33;48.90;99384.72;4796196;29;20031;-81
2020/12/11 08:30:16;;;;;;;2.90;1.65;;;;;;;17.35;49.02;99382.91;4794989;29;20042;-81
2020/12/11 08:32:48;;;;;;;4.78;1.70;;;;;;;17.36;49.05;99382.03;4807754;29;20130;-81
2020/12/11 08:35:21;;;;;;;2.53;1.77;;;;;;;17.36;48.86;99382.03;4793665;29;20035;-81
2020/12/11 08:37:54;;;;;;;2.97;1.58;;;;;;;17.37;48.89;99373.31;4810560;29;20471;-81
2020/12/11 08:40:20;;;;;;;;;;;;;;;17.38;48.64;99370.69;4807741;29;20031;-81
2020/12/11 08:43:15;;;;;;;2.20;1.60;;;;;;;17.40;48.72;99375.84;4796824;29;19920;-81
2020/12/11 08:53:51;;;;;;;2.92;2.00;;;;;;;17.43;48.69;99371.38;4807306;29;20091;-81
2020/12/11 08:56:17;;;;;;;2.58;1.55;;;;;;;17.40;48.61;99366.28;4806857;29;20031;-82
2020/12/11 08:58:49;;;;;;;3.17;1.60;;;;;;;17.43;48.61;99368.78;4801320;29;20509;-82
2020/12/11 09:01:14;;;;;;;1.77;1.42;;;;;;;17.42;48.68;99367.09;4803109;29;20035;-80
2020/12/11 09:03:44;;;;;;;3.03;1.73;;;;;;;17.41;48.71;99362.78;4798464;29;20455;-81
2020/12/11 09:06:10;;;;;;;2.90;1.65;;;;;;;17.40;48.55;99366.28;4798571;29;20042;-81
2020/12/11 09:08:35;;;;;;;3.97;1.60;;;;;;;17.38;48.41;99356.84;4812601;29;20030;-81
2020/12/11 09:11:00;;;;;;;2.55;1.63;;;;;;;17.38;48.59;99357.69;4812601;29;20050;-81
2020/12/11 09:13:26;;;;;;;2.28;1.50;;;;;;;17.36;48.74;99353.44;4782575;30;20055;-80
2020/12/11 09:15:51;;;;;;;2.30;1.50;;;;;;;17.37;48.58;99355.97;4807257;29;20046;-80
2020/12/11 09:18:16;;;;;;;3.03;1.50;;;;;;;17.36;48.65;99359.47;4780213;29;20047;-81
2020/12/11 09:20:42;;;;;;;2.50;1.58;;;;;;;17.36;48.82;99359.47;4794106;29;20050;-80
2020/12/11 09:23:08;;;;;;;2.53;1.60;;;;;;;17.35;48.84;99349.13;4786729;30;20451;-80
2020/12/11 09:26:28;;;;;;;;;;;;;;;;;;;;;
2020/12/11 09:32:30;;;;;;;2.60;1.80;;;;;;;17.29;48.39;99347.59;4816759;29;20042;-81
2020/12/11 09:35:34;;;;;;;3.17;2.80;;;;;;;17.10;47.55;99354.25;4812520;29;20043;-80
2020/12/11 09:38:43;;;;;;;6.05;2.28;;;;;;;17.19;47.53;99341.81;4803874;29;20033;-82
2020/12/11 09:41:13;;;;;;;4.43;2.20;;;;;;;17.28;47.80;99348.47;4787522;29;20039;-81
2020/12/11 09:44:16;;;;;;;2.55;2.05;;;;;;;17.30;47.40;99344.06;4827985;29;20077;-81
2020/12/11 09:46:50;;;;;;;4.35;2.53;;;;;;;17.34;47.60;99342.22;4785891;29;20525;-79
2020/12/11 09:49:30;;;;;;;2.67;1.98;;;;;;;17.35;47.60;99338.72;4806932;29;20039;-79
2020/12/11 09:54:39;;;;;;;;;;;;;;;17.38;47.69;99344.69;4777061;30;20558;-79
2020/12/11 09:57:04;;;;;;;3.92;1.58;;;;;;;17.39;47.76;99340.31;4788922;29;20019;-79
2020/12/11 09:59:45;;;;;;;2.60;1.52;;;;;;;17.37;47.62;99337.75;4759641;30;20036;-80
2020/12/11 10:04:36;;;;;;;2.40;1.80;;;;;;;17.41;47.78;99333.31;4790801;30;20035;-80
2020/12/11 10:07:01;;;;;;;2.30;1.67;;;;;;;17.40;47.60;99332.47;4774144;30;20039;-79
2020/12/11 10:09:27;;;;;;;4.80;1.65;;;;;;;17.41;47.64;99331.56;4758909;30;20031;-80
2020/12/11 10:11:53;;;;;;;2.08;1.50;;;;;;;17.42;47.67;99324.59;4744123;30;20046;-79
2020/12/11 10:16:50;;;;;;;2.03;1.40;;;;;;;17.41;47.74;99317.72;4789954;29;20122;-79
2020/12/11 10:19:15;;;;;;;2.15;1.40;;;;;;;17.41;47.63;99317.72;4788169;30;20130;-79
2020/12/11 10:21:41;;;;;;;2.17;1.40;;;;;;;17.42;47.98;99315.06;4773876;30;20039;-80
2020/12/11 10:24:06;;;;;;;2.88;1.55;;;;;;;17.42;47.86;99311.59;4759550;30;20900;-80
2020/12/11 10:26:32;;;;;;;4.25;1.50;;;;;;;17.43;47.62;99319.38;4776392;29;20405;-80
2020/12/11 10:28:57;;;;;;;2.03;1.40;;;;;;;17.42;47.78;99314.19;4776793;29;20483;-80
2020/12/11 10:31:28;;;;;;;1.85;1.45;;;;;;;17.43;47.43;99321.97;4791477;29;20047;-80
2020/12/11 10:33:54;;;;;;;2.08;1.50;;;;;;;17.45;47.37;99317.56;4805828;29;20453;-80
2020/12/11 10:36:19;;;;;;;2.10;1.55;;;;;;;17.47;47.50;99312.31;4776164;29;20037;-80
2020/12/11 10:38:45;;;;;;;1.90;1.25;;;;;;;17.47;47.43;99302.75;4806179;29;20097;-79
2020/12/11 10:41:10;;;;;;;1.35;1.17;;;;;;;17.51;47.52;99300.91;4790771;29;20034;-79
2020/12/11 10:43:35;;;;;;;2.50;1.42;;;;;;;17.51;47.44;99298.31;4805807;29;20039;-80
2020/12/11 10:46:01;;;;;;;2.03;1.33;;;;;;;17.51;47.24;99287.03;4775696;29;20042;-79
2020/12/11 10:48:26;;;;;;;2.05;1.20;;;;;;;17.50;47.38;99288.81;4775703;29;20482;-80
2020/12/11 10:50:51;;;;;;;2.42;1.40;;;;;;;17.50;47.30;99285.34;4775563;29;20070;-80
2020/12/11 10:53:17;;;;;;;1.48;1.20;;;;;;;17.48;47.36;99288.00;4775546;29;20113;-78
2020/12/11 10:55:42;;;;;;;1.60;1.20;;;;;;;17.48;47.86;99278.47;4780740;30;20124;-80
2020/12/11 10:58:07;;;;;;;2.20;1.30;;;;;;;17.47;47.44;99278.50;4773858;30;20035;-79
2020/12/11 11:00:33;;;;;;;1.77;1.13;;;;;;;17.47;47.62;99276.75;4796680;29;20045;-80
2020/12/11 11:03:01;;;;;;;1.58;1.10;;;;;;;17.46;47.49;99264.66;4773588;29;20039;-79
2020/12/11 11:05:26;;;;;;;1.60;1.20;;;;;;;17.47;47.36;99261.16;4790442;29;20039;-79
2020/12/11 11:07:52;;;;;;;1.38;1.10;;;;;;;17.48;47.42;99264.59;4776415;29;20045;-79
2020/12/11 11:10:42;;;;;;;1.83;1.10;;;;;;;17.48;47.20;99260.28;4776337;29;20553;-80
2020/12/11 11:13:15;;;;;;;1.50;1.10;;;;;;;17.50;47.65;99251.53;4806778;29;20455;-80
2020/12/11 11:26:13;;;;;;;1.35;1.05;;;;;;;17.48;47.55;99234.25;4805758;29;20054;-80
2020/12/11 11:28:39;;;;;;;2.20;1.40;;;;;;;17.51;47.31;99224.63;4788372;30;20035;-80
2020/12/11 11:31:08;;;;;;;1.42;1.10;;;;;;;17.49;47.32;99227.31;4787350;30;20062;-80
2020/12/11 11:33:33;;;;;;;2.72;1.60;;;;;;;17.50;47.29;99222.94;4774880;30;20054;-79
2020/12/11 11:35:59;;;;;;;1.55;1.20;;;;;;;17.51;47.42;99220.28;4771072;30;20031;-80
2020/12/11 11:38:24;;;;;;;1.48;1.15;;;;;;;17.51;47.45;99216.81;4790094;29;20026;-79
2020/12/11 11:40:52;;;;;;;1.20;1.10;;;;;;;17.52;47.39;99206.38;4775608;29;20035;-80
2020/12/11 11:43:28;;;;;;;1.45;1.20;;;;;;;17.53;47.24;99208.09;4791677;29;20031;-80
2020/12/11 11:45:54;;;;;;;1.48;1.00;;;;;;;17.53;47.33;99209.81;4788094;29;20043;-80
2020/12/11 11:48:22;;;;;;;1.42;1.00;;;;;;;17.52;47.49;99210.72;4788313;30;20035;-80
2020/12/11 11:50:54;;;;;;;1.60;1.27;;;;;;;17.54;47.26;99204.56;4788561;30;20058;-80
2020/12/11 11:53:21;;;;;;;1.55;1.02;;;;;;;17.54;47.28;99201.13;4774530;30;20043;-79
2020/12/11 11:55:47;;;;;;;1.90;1.30;;;;;;;17.53;47.24;99196.81;4765653;29;20039;-79
2020/12/11 11:58:18;;;;;;;1.50;1.10;;;;;;;17.54;47.23;99191.56;4790483;30;20045;-79
2020/12/11 12:00:43;;;;;;;1.65;1.10;;;;;;;17.54;47.39;99188.13;4791093;30;20032;-80
2020/12/11 12:03:09;;;;;;;1.73;1.20;;;;;;;17.54;47.21;99182.91;4796247;29;20453;-80
2020/12/11 12:05:34;;;;;;;1.30;1.10;;;;;;;17.55;47.18;99180.28;4780410;29;20526;-80
2020/12/11 12:08:00;;;;;;;1.80;1.20;;;;;;;17.56;47.36;99173.31;4806668;29;20479;-80
2020/12/11 12:10:25;;;;;;;1.42;1.00;;;;;;;17.56;47.14;99170.72;4789263;29;20054;-80
2020/12/11 12:13:10;;;;;;;1.65;1.25;;;;;;;17.55;47.21;99174.19;4807557;29;20066;-79
2020/12/11 12:15:35;;;;;;;1.65;1.30;;;;;;;17.53;47.27;99166.47;4780641;29;20037;-79
2020/12/11 12:18:07;;;;;;;2.95;1.20;;;;;;;17.54;47.36;99157.75;4809002;29;20031;-79